x

South Brooks (46132) Wave Buoy

4:00 - Mon 22nd Sep 2014 All times are PDT. -7 hours from GMT.

  • Sig Wave height 6.6ft
  • Peak Period 10s
  • Wind
    20mph, 25mph gusts
  • Sea Temp 57°f
  • Aire Temp 59°f
  • Sea Pressure 1009.9mb
  • South Brooks
  • South Brooks

More Historic Weather Station data

Upgrade to MSW Pro to gain access to the past 30 days of data for over 8000 Wavebouys and Weather Stations around the globe.

Join Pro

Comparision Forecast

View Surf forecast
   
lun 09/22 4:00 6.5ft 10s 20 25 mph 1009.9mb 57f 59f
3:00 7ft 10s 20 25 mph 1010.1mb 57f 59f
2:00 6.5ft 8s 18 20 mph 1010.5mb 57f 58f
1:00 6.5ft 10s 13 20 mph 1010.9mb 57f 58f
12:00 7ft 10s 18 20 mph 1010.2mb 57f 58f
dom 09/21 11:00 6.5ft 10s 18 20 mph 1010.5mb 57f 58f
10:00 6ft 10s 18 20 mph 1010.3mb 58f 58f
9:00 6ft 10s 18 20 mph 1010.2mb 58f 59f
8:00 6ft 11s 18 20 mph 1009.9mb 59f 59f
7:00 6ft 10s 18 20 mph 1009.9mb 59f 59f
6:00 6.5ft 10s 20 25 mph 1009.8mb 59f 59f
5:00 6ft 11s 18 22 mph 1010mb 59f 59f
4:00 6.5ft 10s 11 16 mph 1010.3mb 59f 60f
3:00 7ft 10s 11 13 mph 1010.3mb 60f 60f
2:00 7ft 10s 11 13 mph 1010mb 60f 60f
1:00 6.5ft 10s 13 16 mph 1009.6mb 60f 60f
12:00 7ft 10s 16 18 mph 1009.1mb 60f 60f
11:00 7ft 10s 20 25 mph 1008.6mb 59f 59f
10:00 6.5ft 10s 22 29 mph 1007.8mb 59f 60f
9:00 6ft 11s 16 20 mph 1007.6mb 59f 60f
8:00 6ft 12s 11 13 mph 1007.7mb 59f 61f
7:00 6ft 11s 9 11 mph 1008mb 60f 60f
6:00 6ft 11s 7 9 mph 1008.1mb 60f 60f
5:00 6ft 11s 9 11 mph 1008mb 60f 59f
4:00 6.5ft 12s 7
mph
1008.3mb 60f 59f
3:00 6.5ft 11s 2
mph
1009.2mb 60f 59f
2:00 6.5ft 12s 4
mph
1009.2mb 60f 59f
1:00 7ft 12s 4
mph
1009.6mb 60f 59f
12:00 7ft 12s  -  2 mph 1009.9mb 60f 60f
sáb 09/20 11:00 8ft 12s 4
mph
1010.4mb 60f 60f
10:00 7.5ft 12s 4 7 mph 1010.7mb 60f 60f
9:00 7.5ft 12s 7 9 mph 1011.1mb 60f 60f
8:00 7.5ft 11s 7 9 mph 1011.6mb 60f 60f
7:00 7ft 12s 9 11 mph 1012.4mb 60f 60f
6:00 7.5ft 12s 9 11 mph 1013.4mb 60f 61f
5:00 7ft 10s 9 11 mph 1014.5mb 61f 61f
4:00 6.5ft 12s 9 11 mph 1015.7mb 61f 61f
3:00 6.5ft 12s 9 11 mph 1016.7mb 61f 61f
2:00 6.5ft 12s 7 9 mph 1017.7mb 61f 61f
1:00 6ft 11s 7
mph
1018.6mb 61f 60f
12:00 6.5ft 13s 4
mph
1019.5mb 60f 60f
11:00 7.5ft 13s 2 4 mph 1019.7mb 60f 59f
10:00 8ft 13s 2 4 mph 1020mb 60f 59f
9:00 8.5ft 12s 4 7 mph 1020.2mb 59f 60f
8:00 9.5ft 12s 4 7 mph 1020.2mb 59f 60f
7:00 9ft 13s 7 9 mph 1020.2mb 59f 59f
6:00 10ft 12s 7 11 mph 1020.3mb 59f 58f
5:00 9.5ft 13s 4 9 mph 1020.3mb 59f 58f
4:00 11.5ft 12s 7 9 mph 1020.6mb 59f 59f
3:00 11ft 13s 4 9 mph 1020.7mb 59f 59f
2:00 11ft 12s 7 11 mph 1020.9mb 60f 59f
1:00 10ft 13s 4 9 mph 1021mb 60f 60f
12:00 11ft 13s 4 9 mph 1020.8mb 59f 60f
vie 09/19 11:00 11ft 12s 4 7 mph 1020.8mb 60f 60f
10:00 10ft 12s 4 7 mph 1020.7mb 60f 60f
9:00 11ft 14s 4
mph
1020.6mb 60f 60f
8:00 10.5ft 13s 4
mph
1020mb 60f 60f
7:00 10ft 11s 4
mph
1019.8mb 61f 61f
6:00 11ft 12s 4 7 mph 1019.6mb 61f 62f
5:00 11.5ft 12s 4 9 mph 1019.7mb 61f 62f
4:00 11ft 12s 4 7 mph 1019.7mb 60f 61f
3:00 10ft 10s 7 9 mph 1019.7mb 60f 61f
2:00 10ft 10s 4 7 mph 1019.6mb 60f 61f
1:00 9.5ft 10s 2 4 mph 1019.2mb 60f 60f
12:00 8ft 10s 4
mph
1018.4mb 59f 59f
11:00 7ft 10s 4 7 mph 1018.2mb 59f 59f
10:00 7.5ft 10s 4
mph
1017.7mb 59f 59f
9:00 7ft 9s 4 7 mph 1016.8mb 59f 59f
8:00 7ft 10s 4 7 mph 1016.1mb 59f 58f
7:00 7ft 17s 4
mph
1014.9mb 59f 60f
6:00 7ft 8s 4 7 mph 1014.8mb 59f 59f
5:00 7ft 16s 2 4 mph 1014.1mb 59f 59f
4:00 7ft 9s 2 4 mph 1013.7mb 58f 59f
3:00 6.5ft 9s 4 7 mph 1013.1mb 58f 59f
2:00 6ft 17s 4 7 mph 1012.2mb 58f 59f
1:00 6.5ft 8s 9
mph
1011.3mb 59f 60f
12:00 6ft 8s 7 9 mph 1010.5mb 58f 60f
jue 09/18 11:00 6ft 17s 7 9 mph 1010mb 59f 60f
10:00 6ft 17s 9 13 mph 1009.6mb 59f 60f
9:00 5.5ft 17s 18 22 mph 1008.6mb 59f 59f
8:00 5ft 17s 20 25 mph 1008.1mb 60f 59f
7:00 4.5ft 17s 20 22 mph 1008.3mb 60f 59f
6:00 4.5ft 18s 18 22 mph 1008mb 60f 60f
5:00 4.5ft 17s 13 18 mph 1008.1mb 60f 60f
4:00 4.5ft 17s 11 13 mph 1008.7mb 60f 60f
3:00 4.5ft 17s 9 11 mph 1008.6mb 60f 60f
2:00 4.5ft 17s 9 11 mph 1008.6mb 60f 60f
1:00 4.5ft 18s 9 11 mph 1008.1mb 60f 60f